createdAt,value
2022-08-20T00:03:39.236Z,25
2022-08-20T00:08:31.756Z,25.02
2022-08-20T00:13:24.528Z,24.97
2022-08-20T00:18:16.995Z,25.01
2022-08-20T00:23:10.546Z,24.95
2022-08-20T00:28:01.964Z,24.96
2022-08-20T00:32:54.558Z,24.96
2022-08-20T00:37:47.010Z,24.95
2022-08-20T00:42:39.470Z,24.9
2022-08-20T00:47:32.348Z,24.93
2022-08-20T00:52:24.859Z,24.9
2022-08-20T00:57:17.297Z,24.94
2022-08-20T01:02:10.077Z,24.99
2022-08-20T01:07:02.833Z,24.95
2022-08-20T01:11:55.080Z,24.92
2022-08-20T01:16:47.573Z,24.92
2022-08-20T01:21:41.069Z,24.88
2022-08-20T01:26:33.528Z,24.9
2022-08-20T01:31:26.316Z,24.89
2022-08-20T01:41:11.387Z,24.87
2022-08-20T01:46:04.154Z,24.88
2022-08-20T01:50:56.739Z,24.85
2022-08-20T01:55:49.354Z,24.83
2022-08-20T02:00:42.027Z,24.88
2022-08-20T02:05:34.666Z,24.8
2022-08-20T02:10:27.239Z,24.79
2022-08-20T02:15:30.727Z,24.84
2022-08-20T02:20:12.473Z,24.82
2022-08-20T02:25:05.006Z,24.8
2022-08-20T02:29:57.796Z,24.85
2022-08-20T02:34:50.029Z,24.85
2022-08-20T02:39:42.595Z,24.85
2022-08-20T02:44:35.047Z,24.82
2022-08-20T02:49:27.872Z,24.85
2022-08-20T02:54:20.327Z,24.81
2022-08-20T02:59:12.525Z,24.8
2022-08-20T03:04:04.903Z,24.78
2022-08-20T03:08:57.345Z,24.78
2022-08-20T03:13:50.071Z,24.79
2022-08-20T03:18:42.702Z,24.75
2022-08-20T03:23:35.312Z,24.76
2022-08-20T03:28:27.829Z,24.76
2022-08-20T03:33:20.230Z,24.76
2022-08-20T03:38:12.863Z,24.74
2022-08-20T03:43:05.416Z,24.73
2022-08-20T03:47:58.331Z,24.73
2022-08-20T03:52:50.668Z,24.71
2022-08-20T03:57:42.996Z,24.71
2022-08-20T04:02:35.614Z,24.69
2022-08-20T04:07:28.218Z,24.7
2022-08-20T04:12:20.850Z,24.74
2022-08-20T04:17:13.616Z,24.68
2022-08-20T04:22:05.972Z,24.68
2022-08-20T04:26:58.694Z,24.68
2022-08-20T04:31:50.988Z,24.66
2022-08-20T04:36:43.374Z,24.64
2022-08-20T04:41:35.756Z,24.42
2022-08-20T04:46:27.514Z,23.96
2022-08-20T04:51:18.980Z,22.94
2022-08-20T04:56:10.961Z,23.02
2022-08-20T05:01:03.441Z,22.97
2022-08-20T05:05:55.802Z,23.06
2022-08-20T05:10:48.806Z,23.26
2022-08-20T05:15:41.283Z,23.26
2022-08-20T05:20:33.741Z,23.25
2022-08-20T05:25:26.535Z,23.25
2022-08-20T05:30:18.538Z,22.36
2022-08-20T05:35:10.606Z,22.27
2022-08-20T05:40:04.381Z,23.15
2022-08-20T05:44:56.616Z,22.63
2022-08-20T05:49:48.750Z,22.88
2022-08-20T05:54:42.727Z,23.17
2022-08-20T05:59:35.203Z,23.2
2022-08-20T06:04:27.196Z,22.83
2022-08-20T06:09:28.211Z,23.13
2022-08-20T06:14:12.303Z,23.09
2022-08-20T06:19:03.877Z,22.34
2022-08-20T06:23:58.872Z,22.84
2022-08-20T06:28:49.881Z,22.82
2022-08-20T06:33:42.763Z,23.18
2022-08-20T06:38:35.292Z,23.14
2022-08-20T06:43:27.570Z,23.13
2022-08-20T06:48:19.847Z,23.09
2022-08-20T06:53:11.908Z,22.93
2022-08-20T06:58:04.925Z,23.21
2022-08-20T07:02:57.839Z,23.16
2022-08-20T07:07:49.833Z,23.14
2022-08-20T07:12:42.447Z,23.25
2022-08-20T07:17:35.088Z,23.15
2022-08-20T07:22:27.403Z,23.28
2022-08-20T07:27:19.572Z,23.17
2022-08-20T07:32:12.262Z,23.23
2022-08-20T07:37:04.021Z,23.08
2022-08-20T07:46:48.399Z,23.25
2022-08-20T07:56:33.619Z,23.37
2022-08-20T08:01:26.201Z,23.4
2022-08-20T08:06:19.690Z,23.45
2022-08-20T08:11:10.879Z,22.97
2022-08-20T08:16:03.786Z,23.61
2022-08-20T08:20:56.720Z,23.81
2022-08-20T08:25:49.737Z,23.85
2022-08-20T08:30:42.045Z,23.83
2022-08-20T08:35:34.171Z,23.79
2022-08-20T08:40:26.738Z,23.89
2022-08-20T08:45:19.615Z,23.93
2022-08-20T08:50:12.151Z,23.95
2022-08-20T08:55:04.917Z,23.95
2022-08-20T09:00:03.268Z,23.97
2022-08-20T09:04:49.588Z,23.94
2022-08-20T09:09:42.195Z,23.96
2022-08-20T09:14:34.908Z,23.99
2022-08-20T09:19:27.252Z,23.93
2022-08-20T09:24:19.838Z,23.98
2022-08-20T09:29:12.515Z,23.99
2022-08-20T09:34:04.966Z,23.98
2022-08-20T09:38:57.429Z,23.99
2022-08-20T09:43:46.912Z,24.01
2022-08-20T09:48:40.817Z,24.02
2022-08-20T09:53:33.499Z,23.97
2022-08-20T09:58:26.515Z,23.99
2022-08-20T10:03:19.240Z,23.94
2022-08-20T10:08:11.903Z,23.98
2022-08-20T10:13:04.455Z,23.98
2022-08-20T10:17:57.403Z,24.02
2022-08-20T10:22:50.004Z,24.01
2022-08-20T10:27:42.621Z,24.05
2022-08-20T10:32:35.379Z,24.08
2022-08-20T10:37:27.973Z,24.09
2022-08-20T10:42:20.496Z,24.12
2022-08-20T10:47:13.192Z,24.12
2022-08-20T10:52:05.905Z,24.15
2022-08-20T10:56:58.461Z,24.21
2022-08-20T11:01:51.081Z,24.2
2022-08-20T11:06:43.848Z,24.21
2022-08-20T11:11:36.473Z,24.31
2022-08-20T11:16:29.369Z,24.3
2022-08-20T11:21:21.825Z,24.32
2022-08-20T11:26:14.675Z,24.36
2022-08-20T11:31:07.503Z,24.35
2022-08-20T11:35:59.812Z,24.34
2022-08-20T11:40:52.770Z,24.38
2022-08-20T11:45:45.343Z,24.42
2022-08-20T11:50:38.192Z,24.42
2022-08-20T11:55:31.164Z,24.43
2022-08-20T12:00:29.329Z,24.48
2022-08-20T12:05:16.392Z,24.5
2022-08-20T12:10:09.039Z,24.54
2022-08-20T12:15:01.785Z,24.58
2022-08-20T12:19:54.496Z,24.6
2022-08-20T12:24:47.215Z,24.64
2022-08-20T12:29:39.799Z,24.64
2022-08-20T12:34:32.536Z,24.66
2022-08-20T12:39:25.412Z,24.85
2022-08-20T12:44:18.241Z,24.84
2022-08-20T12:49:10.869Z,24.91
2022-08-20T12:54:03.467Z,24.91
2022-08-20T12:58:56.258Z,25.02
2022-08-20T13:03:49.527Z,25.11
2022-08-20T13:08:42.289Z,25.16
2022-08-20T13:13:35.085Z,25.29
2022-08-20T13:18:27.768Z,25.39
2022-08-20T13:23:20.517Z,25.4
2022-08-20T13:28:12.894Z,25.2
2022-08-20T13:33:05.474Z,25.25
2022-08-20T13:37:58.146Z,25.32
2022-08-20T13:42:50.965Z,25.41
2022-08-20T13:47:43.523Z,25.37
2022-08-20T13:52:36.291Z,25.33
2022-08-20T13:57:28.926Z,25.35
2022-08-20T14:02:21.477Z,25.42
2022-08-20T14:12:06.478Z,25.31
2022-08-20T14:21:52.367Z,25.39
2022-08-20T14:31:37.578Z,25.42
2022-08-20T14:36:29.961Z,25.39
2022-08-20T14:41:22.449Z,25.35
2022-08-20T14:46:14.581Z,25.31
2022-08-20T14:51:07.136Z,25.32
2022-08-20T14:55:59.795Z,25.32
2022-08-20T15:00:52.637Z,25.39
2022-08-20T15:05:45.386Z,25.4
2022-08-20T15:10:37.970Z,25.33
2022-08-20T15:15:30.672Z,25.41
2022-08-20T15:20:23.321Z,25.43
2022-08-20T15:25:15.508Z,25.28
2022-08-20T15:30:08.236Z,25.31
2022-08-20T15:35:00.982Z,25.29
2022-08-20T15:39:53.981Z,25.32
2022-08-20T15:44:46.446Z,25.13
2022-08-20T15:49:39.045Z,25.08
2022-08-20T15:54:31.672Z,25.07
2022-08-20T15:59:24.427Z,25.04
2022-08-20T16:04:16.947Z,25.03
2022-08-20T16:09:09.564Z,24.98
2022-08-20T16:14:02.378Z,24.95
2022-08-20T16:18:55.290Z,24.93
2022-08-20T16:23:47.934Z,24.77
2022-08-20T16:28:40.477Z,24.83
2022-08-20T16:33:33.167Z,24.73
2022-08-20T16:38:26.190Z,24.8
2022-08-20T16:43:18.944Z,24.77
2022-08-20T16:48:11.709Z,24.74
2022-08-20T16:53:04.320Z,24.68
2022-08-20T16:57:56.998Z,24.7
2022-08-20T17:02:49.711Z,24.71
2022-08-20T17:07:42.563Z,24.59
2022-08-20T17:12:34.837Z,24.68
2022-08-20T17:17:27.525Z,24.68
2022-08-20T17:22:20.299Z,24.88
2022-08-20T17:27:12.997Z,24.87
2022-08-20T17:32:05.782Z,24.96
2022-08-20T17:36:58.693Z,24.88
2022-08-20T17:41:51.629Z,24.96
2022-08-20T17:46:44.180Z,24.82
2022-08-20T17:51:37.238Z,24.87
2022-08-20T17:56:29.567Z,24.8
2022-08-20T18:01:22.298Z,24.86
2022-08-20T18:06:14.781Z,25.04
2022-08-20T18:11:07.242Z,25.16
2022-08-20T18:15:59.747Z,25.15
2022-08-20T18:20:52.780Z,25.22
2022-08-20T18:25:45.500Z,25.21
2022-08-20T18:30:38.325Z,25.24
2022-08-20T18:35:31.161Z,25.31
2022-08-20T18:40:23.860Z,25.3
2022-08-20T18:45:11.659Z,25.27
2022-08-20T18:50:04.131Z,25.24
2022-08-20T18:54:58.087Z,25.32
2022-08-20T18:59:50.834Z,25.28
2022-08-20T19:04:43.466Z,25.27
2022-08-20T19:09:36.062Z,25.29
2022-08-20T19:14:28.767Z,25.27
2022-08-20T19:19:21.480Z,25.27
2022-08-20T19:24:14.178Z,25.17
2022-08-20T19:29:06.934Z,25.18
2022-08-20T19:33:59.463Z,25.14
2022-08-20T19:38:52.366Z,25.12
2022-08-20T19:43:45.032Z,25.13
2022-08-20T19:48:37.533Z,25.11
2022-08-20T19:53:30.589Z,25.13
2022-08-20T19:58:26.001Z,25.11
2022-08-20T20:08:08.050Z,25.06
2022-08-20T20:13:00.898Z,25.11
2022-08-20T20:17:53.667Z,25.1
2022-08-20T20:22:46.475Z,25.09
2022-08-20T20:27:39.082Z,25.1
2022-08-20T20:32:31.765Z,25.1
2022-08-20T20:37:27.796Z,25.1
2022-08-20T20:42:17.310Z,25.09
2022-08-20T20:47:09.921Z,25.09
2022-08-20T20:52:02.595Z,25.04
2022-08-20T20:56:55.380Z,25.04
2022-08-20T21:01:50.490Z,25.08
2022-08-20T21:06:40.506Z,24.96
2022-08-20T21:11:33.146Z,24.94
2022-08-20T21:16:25.646Z,24.94
2022-08-20T21:21:17.930Z,24.92
2022-08-20T21:26:10.559Z,24.9
2022-08-20T21:31:03.188Z,24.92
2022-08-20T21:35:55.722Z,24.93
2022-08-20T21:40:48.402Z,24.95
2022-08-20T21:45:41.105Z,24.94
2022-08-20T21:50:33.716Z,24.89
2022-08-20T21:55:26.420Z,24.94
2022-08-20T22:00:18.719Z,24.94
2022-08-20T22:05:11.394Z,24.97
2022-08-20T22:10:03.928Z,24.93
2022-08-20T22:14:56.695Z,24.92
2022-08-20T22:19:49.571Z,24.96
2022-08-20T22:24:42.223Z,24.9
2022-08-20T22:29:34.667Z,24.89
2022-08-20T22:34:27.646Z,24.91
2022-08-20T22:39:20.273Z,24.92
2022-08-20T22:44:12.970Z,24.91
2022-08-20T22:49:05.731Z,24.89
2022-08-20T22:53:58.389Z,24.87
2022-08-20T22:58:51.151Z,24.84
2022-08-20T23:03:44.009Z,24.85
2022-08-20T23:08:36.649Z,24.82
2022-08-20T23:13:29.283Z,24.77
2022-08-20T23:18:21.873Z,24.77
2022-08-20T23:23:14.206Z,24.76
2022-08-20T23:28:06.868Z,24.74
2022-08-20T23:33:01.456Z,24.72
2022-08-20T23:37:52.362Z,24.76
2022-08-20T23:42:44.922Z,24.77
2022-08-20T23:47:37.598Z,24.74
2022-08-20T23:52:30.075Z,24.69
2022-08-20T23:57:22.942Z,24.72
